Time;durP1;ratioP1;P1;durP2;ratioP2;P2;SDS_P1;SDS_P2;PMS_P1;PMS_P2;Temp;Humidity;BMP_temperature;BMP_pressure;BME280_temperature;BME280_humidity;BME280_pressure;Samples;Min_cycle;Max_cycle;Signal;HPM_P1;HPM_P2
2023/10/20 00:01:55;;;;;;;71.75;29.55;;;8.50;99.90;;;;;;2603617;54;20818;31
2023/10/20 00:04:33;;;;;;;68.40;27.40;;;8.50;99.90;;;;;;2603494;54;20961;31
2023/10/20 00:07:09;;;;;;;72.32;27.27;;;8.50;99.90;;;;;;2603362;54;20037;31
2023/10/20 00:09:44;;;;;;;;;;;8.50;99.90;;;;;;2622057;46;20029;31
2023/10/20 00:12:19;;;;;;;75.25;25.88;;;8.50;99.90;;;;;;2621872;46;19958;31
2023/10/20 00:14:51;;;;;;;69.90;25.97;;;8.50;99.90;;;;;;2603135;54;22366;31
2023/10/20 00:17:26;;;;;;;73.15;26.85;;;8.50;99.90;;;;;;2603554;54;20913;31
2023/10/20 00:20:04;;;;;;;65.80;25.05;;;8.40;99.90;;;;;;2603377;54;20032;31
2023/10/20 00:22:40;;;;;;;66.72;25.20;;;8.50;99.90;;;;;;2603401;54;20037;31
2023/10/20 00:25:15;;;;;;;76.60;26.35;;;8.50;99.90;;;;;;2621795;46;20034;31
2023/10/20 00:27:49;;;;;;;64.93;25.02;;;8.50;99.90;;;;;;2603227;54;20037;31
2023/10/20 00:30:25;;;;;;;73.47;27.48;;;8.50;99.90;;;;;;2603399;54;20872;31
2023/10/20 00:33:01;;;;;;;71.70;26.23;;;8.50;99.90;;;;;;2602934;54;20052;31
2023/10/20 00:35:41;;;;;;;70.23;28.27;;;8.50;99.90;;;;;;2621580;46;20031;31
2023/10/20 00:38:15;;;;;;;74.90;25.75;;;8.50;99.90;;;;;;2603409;54;20964;31
2023/10/20 00:40:50;;;;;;;75.00;26.23;;;8.40;99.90;;;;;;2603320;54;20031;31
2023/10/20 00:43:35;;;;;;;69.53;25.93;;;8.40;99.90;;;;;;2621862;46;20033;31
2023/10/20 00:46:10;;;;;;;73.20;25.47;;;8.40;99.90;;;;;;2603564;54;19934;31
2023/10/20 00:48:45;;;;;;;76.95;28.25;;;8.40;99.90;;;;;;2603464;54;20033;31
2023/10/20 00:51:24;;;;;;;75.05;26.95;;;8.40;99.90;;;;;;2621674;46;20081;31
2023/10/20 00:54:01;;;;;;;68.00;25.75;;;8.40;99.90;;;;;;2603126;54;20033;31
2023/10/20 00:56:35;;;;;;;73.53;25.85;;;8.40;99.90;;;;;;2603140;54;20038;31
2023/10/20 00:59:10;;;;;;;67.43;25.75;;;8.40;99.90;;;;;;2603107;54;20030;31
2023/10/20 01:01:45;;;;;;;57.17;23.30;;;8.40;99.90;;;;;;2603447;54;19993;31
2023/10/20 01:04:21;;;;;;;77.18;28.42;;;8.40;99.90;;;;;;2603123;54;20916;31
2023/10/20 01:06:58;;;;;;;;;;;8.50;99.90;;;;;;2621776;46;20949;31
2023/10/20 01:09:33;;;;;;;63.58;24.45;;;8.50;99.90;;;;;;2603301;54;19939;31
2023/10/20 01:12:09;;;;;;;74.00;27.30;;;8.50;99.90;;;;;;2603297;54;19960;31
2023/10/20 01:14:45;;;;;;;67.78;25.38;;;8.50;99.90;;;;;;2603228;54;20851;31
2023/10/20 01:17:17;;;;;;;73.32;25.60;;;8.50;99.90;;;;;;2603183;54;22387;31
2023/10/20 01:19:52;;;;;;;70.93;26.10;;;8.50;99.90;;;;;;2621684;46;20027;31
2023/10/20 01:22:30;;;;;;;84.75;27.40;;;8.40;99.90;;;;;;2603170;54;20026;31
2023/10/20 01:25:07;;;;;;;70.30;26.67;;;8.50;99.90;;;;;;2603262;54;21009;31
2023/10/20 01:27:42;;;;;;;62.40;25.90;;;8.50;99.90;;;;;;2603343;54;20901;31
2023/10/20 01:30:17;;;;;;;63.38;25.73;;;8.50;99.90;;;;;;2603332;54;20042;31
2023/10/20 01:32:52;;;;;;;66.18;24.77;;;8.50;99.90;;;;;;2603226;54;20050;31
2023/10/20 01:35:27;;;;;;;68.60;26.05;;;8.50;99.90;;;;;;2603476;54;20116;31
2023/10/20 01:38:03;;;;;;;71.90;25.50;;;8.50;99.90;;;;;;2621538;46;20832;31
2023/10/20 01:40:41;;;;;;;74.88;27.08;;;8.50;99.90;;;;;;2603120;54;20089;31
2023/10/20 01:43:16;;;;;;;76.30;26.87;;;8.50;99.90;;;;;;2621100;46;20879;31
2023/10/20 01:45:53;;;;;;;81.00;28.05;;;8.50;99.90;;;;;;2602627;54;20954;31
2023/10/20 01:48:28;;;;;;;81.15;30.42;;;8.50;99.90;;;;;;2603160;54;20022;31
2023/10/20 01:51:03;;;;;;;97.13;31.90;;;8.50;99.90;;;;;;2602789;54;20038;31
2023/10/20 01:53:38;;;;;;;84.30;31.90;;;8.50;99.90;;;;;;2603199;54;20037;31
2023/10/20 01:56:16;;;;;;;87.18;30.80;;;8.50;99.90;;;;;;2621579;46;20275;31
2023/10/20 01:58:50;;;;;;;74.28;30.27;;;8.50;99.90;;;;;;2602693;54;20050;31
2023/10/20 02:01:26;;;;;;;71.38;29.13;;;8.50;99.90;;;;;;2621286;46;20069;31
2023/10/20 02:04:01;;;;;;;;;;;8.50;99.90;;;;;;2603152;54;20827;31
2023/10/20 02:06:35;;;;;;;66.88;24.83;;;8.50;99.90;;;;;;2603203;54;19934;31
2023/10/20 02:09:10;;;;;;;65.80;26.10;;;8.50;99.90;;;;;;2603065;54;20030;31
2023/10/20 02:11:48;;;;;;;62.25;26.23;;;8.50;99.90;;;;;;2621531;46;20030;31
2023/10/20 02:14:22;;;;;;;62.00;24.30;;;8.40;99.90;;;;;;2603180;54;20033;31
2023/10/20 02:16:57;;;;;;;60.00;22.75;;;8.40;99.90;;;;;;2603069;54;20060;31
2023/10/20 02:19:32;;;;;;;62.25;24.15;;;8.40;99.90;;;;;;2621519;47;20058;31
2023/10/20 02:22:07;;;;;;;61.40;22.55;;;8.40;99.90;;;;;;2602977;54;20057;31
2023/10/20 02:24:42;;;;;;;55.63;22.27;;;8.40;99.90;;;;;;2602850;54;20846;31
2023/10/20 02:27:20;;;;;;;50.20;21.50;;;8.40;99.90;;;;;;2602875;54;20878;31
2023/10/20 02:29:58;;;;;;;49.95;21.25;;;8.40;99.90;;;;;;2602772;54;20100;31
2023/10/20 02:32:32;;;;;;;48.50;20.35;;;8.30;99.90;;;;;;2602812;54;20030;31
2023/10/20 02:35:11;;;;;;;47.70;20.20;;;8.40;99.90;;;;;;2621470;47;20049;31
2023/10/20 02:37:47;;;;;;;50.17;20.70;;;8.40;99.90;;;;;;2602736;54;20157;31
2023/10/20 02:40:21;;;;;;;;;;;8.30;99.90;;;;;;2602979;54;20804;31
2023/10/20 02:42:58;;;;;;;50.55;20.83;;;8.40;99.90;;;;;;2602764;54;19934;31
2023/10/20 02:45:34;;;;;;;44.33;19.25;;;8.40;99.90;;;;;;2602937;54;20869;31
2023/10/20 02:48:10;;;;;;;44.30;20.20;;;8.40;99.90;;;;;;2602729;54;20992;31
2023/10/20 02:50:44;;;;;;;48.15;19.90;;;8.30;99.90;;;;;;2621087;47;20506;31
2023/10/20 02:53:20;;;;;;;53.08;21.42;;;8.40;99.90;;;;;;2621319;47;20030;31
2023/10/20 02:55:56;;;;;;;44.60;20.17;;;8.30;99.90;;;;;;2621396;47;20952;31
2023/10/20 02:58:33;;;;;;;47.92;20.42;;;8.30;99.90;;;;;;2603657;54;20948;31
2023/10/20 03:01:10;;;;;;;46.97;20.37;;;8.40;99.90;;;;;;2603502;54;20076;31
2023/10/20 03:03:44;;;;;;;50.50;21.35;;;8.30;99.90;;;;;;2602817;54;20870;31
2023/10/20 03:06:22;;;;;;;49.80;21.40;;;8.30;99.90;;;;;;2622365;46;20830;31
2023/10/20 03:08:56;;;;;;;48.00;21.55;;;8.40;99.90;;;;;;2603506;54;20026;31
2023/10/20 03:11:31;;;;;;;55.55;20.30;;;8.40;99.90;;;;;;2603480;54;20046;31
2023/10/20 03:14:09;;;;;;;44.60;19.40;;;8.40;99.90;;;;;;2622029;46;20031;31
2023/10/20 03:16:45;;;;;;;48.50;21.90;;;8.40;99.90;;;;;;2621735;46;20384;31
2023/10/20 03:19:20;;;;;;;;;;;8.40;99.90;;;;;;2603809;54;20030;31
2023/10/20 03:21:55;;;;;;;45.20;19.30;;;8.40;99.90;;;;;;2603457;54;19941;31
2023/10/20 03:24:29;;;;;;;51.67;21.17;;;8.40;99.90;;;;;;2621722;46;20038;31
2023/10/20 03:27:05;;;;;;;48.70;21.05;;;8.40;99.90;;;;;;2603446;54;20082;31
2023/10/20 03:29:42;;;;;;;50.97;21.17;;;8.30;99.90;;;;;;2603608;54;20052;31
2023/10/20 03:32:17;;;;;;;46.88;19.90;;;8.40;99.90;;;;;;2603269;54;20141;31
2023/10/20 03:34:52;;;;;;;46.60;20.10;;;8.40;99.90;;;;;;2603420;54;20940;31
2023/10/20 03:37:27;;;;;;;43.47;19.47;;;8.30;99.90;;;;;;2603395;54;20032;31
2023/10/20 03:40:03;;;;;;;46.72;19.23;;;8.40;99.90;;;;;;2603199;54;20022;31
2023/10/20 03:42:37;;;;;;;47.73;20.60;;;8.40;99.90;;;;;;2603771;54;20038;31
2023/10/20 03:45:15;;;;;;;45.95;19.90;;;8.40;99.90;;;;;;2603446;54;20238;31
2023/10/20 03:47:50;;;;;;;46.58;21.08;;;8.40;99.90;;;;;;2603366;54;20123;31
2023/10/20 03:50:26;;;;;;;45.55;20.50;;;8.40;99.90;;;;;;2603354;54;20930;31
2023/10/20 03:53:01;;;;;;;46.80;20.50;;;8.40;99.90;;;;;;2603548;54;20880;31
2023/10/20 03:55:36;;;;;;;57.67;20.85;;;8.40;99.90;;;;;;2603221;54;20077;31
2023/10/20 03:58:12;;;;;;;43.60;20.10;;;8.40;99.90;;;;;;2603421;54;20033;31
2023/10/20 04:00:54;;;;;;;49.40;20.45;;;8.50;99.90;;;;;;2603474;54;20142;31
2023/10/20 04:03:30;;;;;;;41.95;18.90;;;8.50;99.90;;;;;;2603315;54;20889;31
2023/10/20 04:06:09;;;;;;;49.40;21.10;;;8.50;99.90;;;;;;2621831;46;20034;31
2023/10/20 04:08:44;;;;;;;49.83;20.60;;;8.50;99.90;;;;;;2621689;46;20050;31
2023/10/20 04:11:19;;;;;;;42.93;19.03;;;8.50;99.90;;;;;;2602998;54;20038;31
2023/10/20 04:13:55;;;;;;;42.58;19.25;;;8.50;99.90;;;;;;2603394;54;20733;31
2023/10/20 04:16:37;;;;;;;40.83;19.90;;;8.50;99.90;;;;;;2603445;54;20172;31
2023/10/20 04:19:21;;;;;;;45.22;20.02;;;8.50;99.90;;;;;;2603313;54;20738;31
2023/10/20 04:21:58;;;;;;;41.80;19.90;;;8.50;99.90;;;;;;2603291;54;20022;31
2023/10/20 04:24:32;;;;;;;46.28;19.50;;;8.50;99.90;;;;;;2603273;54;20042;31
2023/10/20 04:27:20;;;;;;;40.92;20.60;;;8.50;99.90;;;;;;2603423;54;20896;31
2023/10/20 04:58:16;;;;;;;47.58;20.38;;;8.70;99.90;;;;;;2603366;54;20819;31
2023/10/20 05:01:01;;;;;;;50.55;20.63;;;8.70;99.90;;;;;;2603313;54;20798;31
2023/10/20 05:03:45;;;;;;;48.25;20.23;;;8.70;99.90;;;;;;2621864;46;20124;31
2023/10/20 05:06:26;;;;;;;47.35;22.50;;;8.70;99.90;;;;;;2621688;46;20033;31
2023/10/20 05:09:06;;;;;;;47.15;22.00;;;8.70;99.90;;;;;;2603039;54;20033;31
2023/10/20 05:11:42;;;;;;;49.95;20.80;;;8.70;99.90;;;;;;2603145;54;20908;31
2023/10/20 05:14:19;;;;;;;49.75;21.55;;;8.70;99.90;;;;;;2603271;54;20510;31
2023/10/20 05:16:58;;;;;;;51.60;20.95;;;8.70;99.90;;;;;;2603239;54;20085;31
2023/10/20 05:19:36;;;;;;;46.22;21.40;;;8.70;99.90;;;;;;2602999;54;20143;31
2023/10/20 05:22:14;;;;;;;53.65;21.92;;;8.70;99.90;;;;;;2607385;46;20029;31
2023/10/20 05:24:53;;;;;;;47.88;20.70;;;8.60;99.90;;;;;;2602418;54;20113;31
2023/10/20 05:27:28;;;;;;;48.75;20.08;;;8.60;99.90;;;;;;2621063;46;20082;31
2023/10/20 05:30:05;;;;;;;51.17;21.83;;;8.60;99.90;;;;;;2603223;54;20033;31
2023/10/20 05:32:49;;;;;;;54.97;24.73;;;8.70;99.90;;;;;;2603335;54;20794;31
2023/10/20 05:35:28;;;;;;;55.45;24.20;;;8.70;99.90;;;;;;2603114;54;20560;31
2023/10/20 05:38:05;;;;;;;48.28;19.75;;;8.70;99.90;;;;;;2603202;54;20082;31
2023/10/20 05:40:44;;;;;;;45.20;20.67;;;8.70;99.90;;;;;;2621639;46;20834;31
2023/10/20 05:43:22;;;;;;;45.67;21.67;;;8.60;99.90;;;;;;2603302;54;20885;31
2023/10/20 05:45:59;;;;;;;49.20;20.95;;;8.60;99.90;;;;;;2603081;54;20594;31
2023/10/20 05:48:34;;;;;;;57.85;24.00;;;8.60;99.90;;;;;;2603214;54;20879;31
2023/10/20 05:51:12;;;;;;;46.53;21.42;;;8.60;99.90;;;;;;2603250;54;20026;31
2023/10/20 05:53:50;;;;;;;59.72;23.63;;;8.60;99.90;;;;;;2603369;54;20026;31
2023/10/20 05:56:29;;;;;;;59.30;26.48;;;8.60;99.90;;;;;;2602961;54;20018;31
2023/10/20 05:59:05;;;;;;;48.90;21.57;;;8.60;99.90;;;;;;2621664;46;20033;31
2023/10/20 06:01:41;;;;;;;53.63;25.13;;;8.60;99.90;;;;;;2602725;54;20860;31
2023/10/20 06:04:22;;;;;;;61.67;27.38;;;8.60;99.90;;;;;;2603124;54;20026;31
2023/10/20 06:06:56;;;;;;;49.27;21.50;;;8.60;99.90;;;;;;2603186;54;20785;31
2023/10/20 06:09:32;;;;;;;50.25;20.65;;;8.60;99.90;;;;;;2603198;54;20803;31
2023/10/20 06:12:15;;;;;;;46.30;19.75;;;8.60;99.90;;;;;;2621234;46;20031;31
2023/10/20 06:14:54;;;;;;;42.33;19.83;;;8.50;99.90;;;;;;2602328;54;20077;31
2023/10/20 06:17:33;;;;;;;48.45;19.70;;;8.60;99.90;;;;;;2602864;54;20949;31
2023/10/20 06:20:14;;;;;;;47.75;20.98;;;8.50;99.90;;;;;;2603285;54;20034;31
2023/10/20 06:22:49;;;;;;;45.45;19.95;;;8.60;99.90;;;;;;2603034;54;20030;31
2023/10/20 06:25:25;;;;;;;40.30;19.63;;;8.60;99.90;;;;;;2603041;54;20895;31
2023/10/20 06:28:06;;;;;;;38.40;18.65;;;8.60;99.90;;;;;;2621398;47;20030;31
2023/10/20 06:30:47;;;;;;;43.20;19.50;;;8.60;99.90;;;;;;2621443;47;20885;31
2023/10/20 06:33:24;;;;;;;44.50;19.45;;;8.60;99.90;;;;;;2603912;54;20030;31
2023/10/20 06:36:10;;;;;;;48.20;19.65;;;8.60;99.90;;;;;;2603616;54;20027;31
2023/10/20 06:38:46;;;;;;;42.95;19.00;;;8.60;99.90;;;;;;2603809;54;20034;31
2023/10/20 06:41:25;;;;;;;51.57;18.13;;;8.60;99.90;;;;;;2603948;54;20780;31
2023/10/20 06:44:05;;;;;;;41.28;17.50;;;8.60;99.90;;;;;;2603691;54;20940;31
2023/10/20 06:46:40;;;;;;;40.25;17.92;;;8.70;99.90;;;;;;2622118;46;20034;31
2023/10/20 06:49:18;;;;;;;41.03;18.73;;;8.70;99.90;;;;;;2603499;54;20030;31
2023/10/20 06:52:03;;;;;;;45.75;18.38;;;8.70;99.90;;;;;;2603743;54;20026;31
2023/10/20 06:54:41;;;;;;;39.92;18.33;;;8.70;99.90;;;;;;2603836;54;20022;31
2023/10/20 06:57:20;;;;;;;43.42;17.50;;;8.70;99.90;;;;;;2603499;54;20029;31
2023/10/20 07:00:00;;;;;;;38.60;17.15;;;8.70;99.90;;;;;;2603634;54;20148;31
2023/10/20 07:02:36;;;;;;;43.65;18.25;;;8.70;99.90;;;;;;2603506;54;20032;31
2023/10/20 07:05:14;;;;;;;38.83;17.63;;;8.70;99.90;;;;;;2603476;54;20026;31
2023/10/20 07:07:50;;;;;;;41.28;17.23;;;8.80;99.90;;;;;;2603953;54;20999;31
2023/10/20 07:10:28;;;;;;;36.57;17.10;;;8.80;99.90;;;;;;2603737;54;20038;31
2023/10/20 07:13:06;;;;;;;41.70;17.27;;;8.80;99.90;;;;;;2603016;54;22274;31
2023/10/20 07:15:46;;;;;;;39.83;18.40;;;8.80;99.90;;;;;;2602826;54;20038;31
2023/10/20 07:18:23;;;;;;;40.55;18.30;;;8.80;99.90;;;;;;2622459;46;20857;31
2023/10/20 07:21:02;;;;;;;41.17;18.48;;;8.90;99.90;;;;;;2603608;54;20872;31
2023/10/20 07:23:41;;;;;;;42.35;16.77;;;8.90;99.90;;;;;;2603777;54;20030;31
2023/10/20 07:26:18;;;;;;;40.30;17.83;;;9.00;99.90;;;;;;2603633;54;20976;31
2023/10/20 07:28:54;;;;;;;42.05;17.55;;;8.90;99.90;;;;;;2773592;31;20651;31
2023/10/20 07:31:37;;;;;;;40.15;17.60;;;9.00;99.90;;;;;;2603299;54;20786;31
2023/10/20 07:34:16;;;;;;;45.30;17.85;;;9.00;99.90;;;;;;2622241;46;20038;31
2023/10/20 07:36:51;;;;;;;46.50;18.98;;;9.00;99.90;;;;;;2603517;54;20857;31
2023/10/20 07:39:29;;;;;;;44.92;19.67;;;9.00;99.90;;;;;;2621997;46;20097;31
2023/10/20 07:42:06;;;;;;;41.75;17.55;;;9.00;99.90;;;;;;2603707;54;20026;31
2023/10/20 07:44:42;;;;;;;44.85;19.00;;;9.00;99.90;;;;;;2603602;54;20120;31
2023/10/20 07:47:21;;;;;;;48.50;18.90;;;9.10;99.90;;;;;;2603527;54;20153;31
2023/10/20 07:49:57;;;;;;;44.05;19.45;;;9.10;99.90;;;;;;2603671;54;20905;31
2023/10/20 07:52:36;;;;;;;48.60;19.67;;;9.10;99.90;;;;;;2603462;54;20030;31
2023/10/20 07:57:49;;;;;;;47.90;19.50;;;9.10;99.90;;;;;;2603669;54;20030;31
2023/10/20 08:00:25;;;;;;;46.60;18.35;;;9.10;99.90;;;;;;2660081;39;20465;31
2023/10/20 08:03:04;;;;;;;43.65;19.05;;;9.20;99.90;;;;;;2603458;54;20944;31
2023/10/20 08:05:42;;;;;;;46.55;19.75;;;9.20;99.90;;;;;;2602783;54;20941;31
2023/10/20 08:08:18;;;;;;;50.58;21.13;;;9.20;99.90;;;;;;2602645;54;20052;31
2023/10/20 08:10:54;;;;;;;42.33;19.20;;;9.20;99.90;;;;;;2602843;54;20026;31
2023/10/20 08:13:33;;;;;;;49.70;20.45;;;9.20;99.90;;;;;;2603408;54;20026;31
2023/10/20 08:16:09;;;;;;;49.20;19.43;;;9.20;99.90;;;;;;2603248;54;20081;31
2023/10/20 08:18:51;;;;;;;50.60;19.73;;;9.20;99.90;;;;;;2621572;46;20911;31
2023/10/20 08:21:29;;;;;;;45.13;18.48;;;9.30;99.90;;;;;;2603648;54;20070;31
2023/10/20 08:24:06;;;;;;;49.13;18.85;;;9.30;99.90;;;;;;2621390;46;20897;31
2023/10/20 08:26:42;;;;;;;52.05;20.80;;;9.30;99.90;;;;;;2605154;46;20030;31
2023/10/20 08:29:18;;;;;;;50.05;19.08;;;9.30;99.90;;;;;;2603358;54;20146;31
2023/10/20 08:31:56;;;;;;;48.17;18.92;;;9.30;99.90;;;;;;2603036;54;20034;31
2023/10/20 08:34:38;;;;;;;53.35;19.38;;;9.30;99.90;;;;;;2603426;54;20033;31
2023/10/20 08:37:15;;;;;;;44.17;19.67;;;9.30;99.90;;;;;;2603381;54;20026;31
2023/10/20 08:39:50;;;;;;;47.75;19.23;;;9.30;99.90;;;;;;2603219;54;20924;31
2023/10/20 08:42:29;;;;;;;50.08;19.48;;;9.40;99.90;;;;;;2603421;54;20781;31
2023/10/20 08:45:06;;;;;;;49.15;20.67;;;9.40;99.90;;;;;;2603193;54;20030;31
2023/10/20 08:47:45;;;;;;;51.97;22.85;;;9.40;99.90;;;;;;2603364;54;20840;31
2023/10/20 08:50:23;;;;;;;52.95;21.38;;;9.40;99.90;;;;;;2621837;46;20031;31
2023/10/20 08:52:59;;;;;;;50.85;21.10;;;9.40;99.90;;;;;;2603297;54;20855;31
2023/10/20 08:55:36;;;;;;;51.97;18.15;;;9.40;99.90;;;;;;2603005;54;20022;31
2023/10/20 08:58:17;;;;;;;53.13;18.67;;;9.40;99.90;;;;;;2621984;46;20030;31
2023/10/20 09:00:53;;;;;;;49.30;19.70;;;9.40;99.90;;;;;;2603391;54;20219;31
2023/10/20 09:03:41;;;;;;;48.67;19.50;;;9.40;99.90;;;;;;2603329;54;20036;31
2023/10/20 09:06:24;;;;;;;53.10;18.85;;;9.50;99.90;;;;;;2603362;54;20057;31
2023/10/20 09:09:01;;;;;;;50.65;20.02;;;9.50;99.90;;;;;;2603230;54;20157;31
2023/10/20 09:11:36;;;;;;;;;;;9.50;99.90;;;;;;2603725;54;20026;31
2023/10/20 09:14:14;;;;;;;49.92;18.90;;;9.50;99.90;;;;;;2621672;46;19978;31
2023/10/20 09:16:53;;;;;;;45.07;19.53;;;9.50;99.90;;;;;;2621558;46;20109;31
2023/10/20 09:19:32;;;;;;;53.73;19.80;;;9.50;99.90;;;;;;2603078;54;20034;31
2023/10/20 09:22:07;;;;;;;46.00;18.95;;;9.40;99.90;;;;;;2603326;54;20033;31
2023/10/20 09:24:51;;;;;;;49.63;19.35;;;9.50;99.90;;;;;;2603362;54;20045;31
2023/10/20 09:27:30;;;;;;;54.50;19.23;;;9.50;99.90;;;;;;2603262;54;20027;31
2023/10/20 09:30:10;;;;;;;56.42;21.40;;;9.50;99.90;;;;;;2603216;54;20893;31
2023/10/20 09:32:47;;;;;;;49.15;18.83;;;9.60;99.90;;;;;;2622050;46;20817;31
2023/10/20 09:35:25;;;;;;;49.92;18.90;;;9.60;99.90;;;;;;2603166;54;20085;31
2023/10/20 09:38:04;;;;;;;46.03;18.55;;;9.60;99.90;;;;;;2602347;54;20835;31
2023/10/20 09:40:43;;;;;;;53.15;20.38;;;9.60;99.90;;;;;;2607148;46;20933;31
2023/10/20 09:43:23;;;;;;;51.03;20.25;;;9.70;99.90;;;;;;2602406;54;20041;31
2023/10/20 09:46:26;;;;;;;46.30;20.03;;;9.60;99.90;;;;;;2602399;54;20124;31
2023/10/20 09:49:03;;;;;;;47.15;18.90;;;9.60;99.90;;;;;;2602867;54;20171;31
2023/10/20 09:51:42;;;;;;;48.08;20.67;;;9.70;99.90;;;;;;2603217;54;20026;31
2023/10/20 09:54:19;;;;;;;49.03;20.45;;;9.70;99.90;;;;;;2621861;46;20838;31
2023/10/20 09:56:59;;;;;;;50.55;21.25;;;9.70;99.90;;;;;;2603291;54;20030;31
2023/10/20 09:59:36;;;;;;;52.72;20.48;;;9.70;99.90;;;;;;2603136;54;20962;31
2023/10/20 10:02:13;;;;;;;52.10;20.60;;;9.70;99.90;;;;;;2603136;54;20030;31
2023/10/20 10:04:51;;;;;;;55.95;21.70;;;9.70;99.90;;;;;;2603222;54;20965;31
2023/10/20 10:07:32;;;;;;;56.25;21.15;;;9.70;99.90;;;;;;2602929;54;20852;31
2023/10/20 10:10:11;;;;;;;48.05;19.25;;;9.80;99.90;;;;;;2701544;39;21490;31
2023/10/20 10:13:00;;;;;;;49.20;20.05;;;9.80;99.90;;;;;;2603173;54;20027;31
2023/10/20 10:15:41;;;;;;;49.05;20.40;;;9.80;99.90;;;;;;2603017;54;20882;31
2023/10/20 10:18:19;;;;;;;48.80;20.58;;;9.80;99.90;;;;;;2602943;54;20844;31
2023/10/20 10:20:54;;;;;;;47.92;21.92;;;9.80;99.90;;;;;;2602908;54;20049;31
2023/10/20 10:23:33;;;;;;;;;;;9.90;99.90;;;;;;2603212;54;20101;31
2023/10/20 10:26:18;;;;;;;48.58;21.27;;;9.90;99.90;;;;;;2602953;54;20764;31
2023/10/20 10:28:58;;;;;;;53.75;21.40;;;9.90;99.90;;;;;;2603038;54;20026;31
2023/10/20 10:31:37;;;;;;;46.10;20.20;;;9.90;99.90;;;;;;2621456;47;20079;31
2023/10/20 10:34:14;;;;;;;44.85;21.55;;;10.00;99.90;;;;;;2603136;54;20270;31
2023/10/20 10:36:52;;;;;;;49.05;20.75;;;10.00;99.90;;;;;;2602800;54;20978;31
2023/10/20 10:39:30;;;;;;;45.00;20.60;;;10.00;99.90;;;;;;2602744;54;20109;31
2023/10/20 10:42:06;;;;;;;52.00;21.55;;;10.10;99.90;;;;;;2603053;54;20814;31
2023/10/20 10:44:48;;;;;;;50.45;20.75;;;10.10;99.90;;;;;;2603060;54;20026;31
2023/10/20 10:47:22;;;;;;;52.85;22.10;;;10.10;99.90;;;;;;2621520;47;20061;31
2023/10/20 10:50:01;;;;;;;55.10;21.35;;;10.10;99.90;;;;;;2602796;54;20884;31
2023/10/20 10:52:38;;;;;;;58.20;22.47;;;10.10;99.90;;;;;;2603144;54;20057;31
2023/10/20 10:55:15;;;;;;;48.60;21.85;;;10.20;99.90;;;;;;2602809;54;20033;31
2023/10/20 10:57:50;;;;;;;50.95;22.52;;;10.20;99.90;;;;;;2602935;54;20119;31
2023/10/20 11:00:31;;;;;;;51.40;22.10;;;10.20;99.90;;;;;;2602802;54;20916;31
2023/10/20 11:03:09;;;;;;;57.40;23.27;;;10.20;99.90;;;;;;2603015;54;20026;31
2023/10/20 11:05:47;;;;;;;51.85;22.02;;;10.30;99.90;;;;;;2602764;54;20038;31
2023/10/20 11:08:25;;;;;;;45.95;21.50;;;10.30;99.90;;;;;;2602663;54;20925;31
2023/10/20 11:11:03;;;;;;;48.40;22.00;;;10.30;99.90;;;;;;2701474;39;21531;31
2023/10/20 11:13:38;;;;;;;52.15;22.75;;;10.40;99.90;;;;;;2621278;47;20951;31
2023/10/20 11:16:19;;;;;;;52.80;21.90;;;10.40;99.90;;;;;;2602708;54;20894;31
2023/10/20 11:19:01;;;;;;;44.13;21.17;;;10.50;99.90;;;;;;2603778;54;20774;31
2023/10/20 11:21:50;;;;;;;51.10;22.27;;;10.50;99.90;;;;;;2621661;46;20870;31
2023/10/20 11:24:29;;;;;;;49.40;22.67;;;10.50;99.90;;;;;;2603593;54;20100;31
2023/10/20 11:27:07;;;;;;;52.88;22.27;;;10.50;99.90;;;;;;2603827;54;20027;31
2023/10/20 11:29:45;;;;;;;53.55;22.77;;;10.60;99.90;;;;;;2622200;46;20105;31
2023/10/20 11:32:38;;;;;;;49.65;22.10;;;10.60;99.90;;;;;;2603601;54;20034;31
2023/10/20 11:35:21;;;;;;;51.80;22.65;;;10.60;99.90;;;;;;2603559;54;25048;31
2023/10/20 11:38:01;;;;;;;52.23;22.07;;;10.60;99.90;;;;;;2603569;54;20100;31
2023/10/20 11:40:38;;;;;;;52.53;22.15;;;10.70;99.90;;;;;;2603707;54;20044;31
2023/10/20 11:43:14;;;;;;;48.03;24.02;;;10.70;99.90;;;;;;2603534;54;20866;31
2023/10/20 11:45:50;;;;;;;46.25;22.00;;;10.70;99.90;;;;;;2603427;54;20037;31
2023/10/20 11:48:28;;;;;;;49.95;22.10;;;10.80;99.90;;;;;;2603630;54;20902;31
2023/10/20 11:51:04;;;;;;;47.90;22.23;;;10.80;99.90;;;;;;2603491;54;20969;31
2023/10/20 11:53:41;;;;;;;50.63;22.83;;;10.80;99.90;;;;;;2622000;46;20085;31
2023/10/20 11:56:17;;;;;;;51.45;22.20;;;10.90;99.90;;;;;;2603602;54;20048;31
2023/10/20 11:58:58;;;;;;;46.72;22.33;;;10.90;99.90;;;;;;2603305;54;20874;31
2023/10/20 12:01:34;;;;;;;56.58;21.92;;;10.90;99.90;;;;;;2622053;46;20028;31
2023/10/20 12:04:15;;;;;;;50.83;23.20;;;10.90;99.90;;;;;;2603584;54;20049;31
2023/10/20 12:06:52;;;;;;;48.53;20.50;;;11.00;99.90;;;;;;2603500;54;20858;31
2023/10/20 12:09:30;;;;;;;46.53;21.60;;;11.00;99.90;;;;;;2603306;54;20640;31
2023/10/20 12:12:12;;;;;;;47.10;22.17;;;11.00;99.90;;;;;;2621783;46;19939;31
2023/10/20 12:14:51;;;;;;;58.80;22.55;;;11.10;99.90;;;;;;2603585;54;20811;31
2023/10/20 12:17:25;;;;;;;47.23;21.73;;;11.10;99.90;;;;;;2603778;54;20042;31
2023/10/20 12:20:05;;;;;;;50.63;23.08;;;11.10;99.90;;;;;;2603535;54;19953;31
2023/10/20 12:22:42;;;;;;;50.15;22.48;;;11.20;99.90;;;;;;2603609;54;20851;31
2023/10/20 12:25:18;;;;;;;47.33;22.77;;;11.20;99.90;;;;;;2621953;46;20027;31
2023/10/20 12:27:57;;;;;;;46.85;22.85;;;11.20;99.90;;;;;;2603402;54;20026;31
2023/10/20 12:30:34;;;;;;;54.63;23.63;;;11.20;99.90;;;;;;2621669;47;20031;31
2023/10/20 12:33:14;;;;;;;47.95;21.40;;;11.30;99.90;;;;;;2603459;54;20883;31
2023/10/20 12:35:58;;;;;;;52.33;22.10;;;11.30;99.90;;;;;;2603302;54;20968;31
2023/10/20 12:38:33;;;;;;;41.50;21.00;;;11.30;99.90;;;;;;2603256;54;21010;31
2023/10/20 12:41:11;;;;;;;47.07;22.13;;;11.30;99.90;;;;;;2603290;54;20073;31
2023/10/20 12:43:48;;;;;;;47.15;22.58;;;11.30;99.90;;;;;;2621869;46;20022;31
2023/10/20 12:46:24;;;;;;;47.67;22.88;;;11.40;99.90;;;;;;2615836;46;20026;31
2023/10/20 12:49:00;;;;;;;49.67;20.60;;;11.40;99.90;;;;;;2602749;54;20089;31
2023/10/20 12:51:40;;;;;;;;;;;11.40;99.90;;;;;;2603568;54;20893;31
2023/10/20 12:54:19;;;;;;;49.25;21.30;;;11.40;99.90;;;;;;2603307;54;20045;31
2023/10/20 12:56:58;;;;;;;50.73;22.60;;;11.40;99.90;;;;;;2603359;54;20026;31
2023/10/20 12:59:37;;;;;;;45.33;21.97;;;11.40;99.90;;;;;;2603259;54;20231;31
2023/10/20 13:02:16;;;;;;;52.05;24.05;;;11.50;99.90;;;;;;2603301;54;20113;31
2023/10/20 13:04:52;;;;;;;58.33;23.20;;;11.50;99.90;;;;;;2603051;54;20027;31
2023/10/20 13:07:31;;;;;;;49.90;22.60;;;11.50;99.90;;;;;;2603388;54;20097;31
2023/10/20 13:10:12;;;;;;;48.00;21.60;;;11.50;99.90;;;;;;2603541;54;20846;31
2023/10/20 13:12:48;;;;;;;51.17;22.90;;;11.60;99.90;;;;;;2603437;54;20038;31
2023/10/20 13:15:26;;;;;;;49.70;24.45;;;11.60;99.90;;;;;;2603262;54;20867;31
2023/10/20 13:18:02;;;;;;;48.80;22.85;;;11.60;99.90;;;;;;2603209;54;20022;31
2023/10/20 13:20:37;;;;;;;48.78;23.00;;;11.60;99.90;;;;;;2603495;54;20074;31
2023/10/20 13:23:18;;;;;;;49.13;22.35;;;11.60;99.90;;;;;;2603217;54;20917;31
2023/10/20 13:26:01;;;;;;;53.22;22.90;;;11.60;99.90;;;;;;2603213;54;20053;31
2023/10/20 13:28:37;;;;;;;52.05;22.83;;;11.60;99.90;;;;;;2621273;46;20905;31
2023/10/20 13:31:21;;;;;;;53.80;23.48;;;11.60;99.90;;;;;;2621512;46;20045;31
2023/10/20 13:34:00;;;;;;;49.45;21.83;;;11.60;99.90;;;;;;2621418;46;20042;31
2023/10/20 13:36:37;;;;;;;42.05;21.13;;;11.70;99.90;;;;;;2602900;54;20946;31
2023/10/20 13:39:22;;;;;;;52.70;22.97;;;11.70;99.90;;;;;;2603207;54;20030;31
2023/10/20 13:42:06;;;;;;;50.80;23.10;;;11.70;99.90;;;;;;2621614;46;20258;31
2023/10/20 13:44:42;;;;;;;52.95;22.67;;;11.70;99.90;;;;;;2603118;54;20970;31
2023/10/20 13:47:18;;;;;;;44.07;21.67;;;11.70;99.90;;;;;;2603032;54;20093;31
2023/10/20 13:49:54;;;;;;;49.95;22.90;;;11.70;99.90;;;;;;2602938;54;20030;31
2023/10/20 13:52:31;;;;;;;51.15;22.88;;;11.70;99.90;;;;;;2603035;54;20027;31
2023/10/20 13:55:14;;;;;;;47.35;23.67;;;11.70;99.90;;;;;;2621137;46;22476;31
2023/10/20 13:57:53;;;;;;;55.13;23.40;;;11.70;99.90;;;;;;2603001;54;20033;31
2023/10/20 14:00:35;;;;;;;52.90;22.05;;;11.70;99.90;;;;;;2602462;54;20932;31
2023/10/20 14:03:14;;;;;;;53.60;21.87;;;11.70;99.90;;;;;;2603055;54;20035;31
2023/10/20 14:05:55;;;;;;;48.90;21.40;;;11.70;99.90;;;;;;2603112;54;21066;31
2023/10/20 14:08:32;;;;;;;46.95;23.90;;;11.70;99.90;;;;;;2621754;46;20846;31
2023/10/20 14:11:11;;;;;;;51.00;22.60;;;11.80;99.90;;;;;;2603156;54;20057;31